Carthage Lake, Illinois
Current Conditions -  °F | °C
As of 4:53 AM on Friday 28 Nov 2014 (Local Time) from KBRL Reporting Station
Broken Clouds Broken Clouds  
Wind Chill:   Ceiling: 12000
Heat Index: 17°   Visibility: 10mi
Dew Point: 10°   Wind: 9mph
Humidity: 74%   Direction: 140°SE
Pressure: 30.22"   Gusts: NA
Location:  40.7646°N, 91.0498°W
Report Text: KBRL 281053Z AUTO 14008KT 10SM BKN120 M08/M12 A3022 RMK AO2 SLP246 T10831122 PWINO FZRANO $
Loading
Personal Weather Stations






























Interactive Weather Map New forecast layout! Learn more

10-Day Weather Forecast

Advertisements
Track Severe Weather on mobile